createdAt,value
2023-04-19T08:29:23.643Z,142348.53
2023-04-19T08:34:29.277Z,142410.41
2023-04-19T08:39:34.242Z,142551.44
2023-04-19T08:44:58.917Z,142515.53
2023-04-19T08:50:17.440Z,142505.66
2023-04-19T08:55:28.928Z,142475.97
2023-04-19T09:00:34.880Z,142453.69
2023-04-19T09:05:38.719Z,142468.56
2023-04-19T09:10:53.409Z,142483.38
2023-04-19T09:16:00.705Z,142587.31
2023-04-19T09:21:04.324Z,142577.44
2023-04-19T09:26:22.804Z,142480.91
2023-04-19T09:31:43.413Z,142454.91
2023-04-19T09:37:00.991Z,142500.72
2023-04-19T09:42:12.537Z,142577.44
2023-04-19T09:47:26.257Z,142685.09
2023-04-19T09:52:29.633Z,142664.09
2023-04-19T09:57:33.585Z,142671.50
2023-04-19T10:02:39.331Z,142718.56
2023-04-19T10:07:45.914Z,142770.56
2023-04-19T10:17:57.789Z,142669.03
2023-04-19T10:23:01.280Z,142638.06
2023-04-19T10:28:07.348Z,142651.69
2023-04-19T10:33:25.271Z,142695.03
2023-04-19T10:38:42.685Z,142683.88
2023-04-19T10:43:51.372Z,142670.28
2023-04-19T10:49:01.467Z,142714.88
2023-04-19T10:54:06.429Z,142791.63
2023-04-19T10:59:24.842Z,142837.50
2023-04-19T11:04:47.951Z,142804.06
2023-04-19T11:09:52.918Z,142958.94
2023-04-19T11:14:59.731Z,142820.13
2023-04-19T11:20:06.778Z,142868.47
2023-04-19T11:25:12.300Z,142930.44
2023-04-19T11:30:16.852Z,142836.25
2023-04-19T11:35:21.257Z,142785.44
2023-04-19T11:40:27.007Z,142774.31
2023-04-19T11:45:34.750Z,142754.50
2023-04-19T11:50:45.671Z,142753.25
2023-04-19T11:55:54.303Z,142796.56
2023-04-19T12:01:00.470Z,142770.56
2023-04-19T12:06:04.933Z,142821.38
2023-04-19T12:11:09.718Z,142812.72
2023-04-19T12:16:13.407Z,142879.59
2023-04-19T12:21:26.016Z,142857.34
2023-04-19T12:26:31.179Z,142844.91
2023-04-19T12:31:34.474Z,142769.31
2023-04-19T12:36:37.765Z,142766.84
2023-04-19T12:41:42.398Z,142728.47
2023-04-19T12:46:45.720Z,142744.59
2023-04-19T12:51:49.003Z,142835.03
2023-04-19T12:57:00.361Z,142963.88
2023-04-19T13:02:08.287Z,142916.81
2023-04-19T13:07:11.867Z,142949.03
2023-04-19T13:12:20.451Z,142982.50
2023-04-19T13:17:23.819Z,142958.94
2023-04-19T13:22:27.613Z,142916.81
2023-04-19T13:27:32.948Z,142973.84
2023-04-19T13:32:36.385Z,142831.31
2023-04-19T13:37:44.463Z,142872.19
2023-04-19T13:42:49.364Z,142786.69
2023-04-19T13:47:52.837Z,142742.06
2023-04-19T13:52:58.151Z,142763.13
2023-04-19T13:58:03.062Z,142688.84
2023-04-19T14:03:09.030Z,142654.16
2023-04-19T14:08:12.499Z,142657.84
2023-04-19T14:13:42.901Z,142785.44
2023-04-19T14:18:46.365Z,142760.66
2023-04-19T14:23:49.714Z,142697.50
2023-04-19T14:28:56.700Z,142683.88
2023-04-19T14:34:00.544Z,142557.59
2023-04-19T14:39:03.856Z,142506.91
2023-04-19T14:44:10.930Z,142437.63
2023-04-19T14:49:14.456Z,142347.28
2023-04-19T14:54:21.116Z,142142.06
2023-04-19T14:59:27.588Z,142085.22
2023-04-19T15:04:40.693Z,142053.09
2023-04-19T15:10:13.296Z,141802.47
2023-04-19T15:15:18.096Z,141569.31
2023-04-19T15:20:24.499Z,141363.47
2023-04-19T15:25:30.879Z,141229.22
2023-04-19T15:30:35.805Z,141178.75
2023-04-19T15:35:45.835Z,141183.66
2023-04-19T15:40:49.439Z,141165.16
2023-04-19T15:45:56.830Z,141145.50
2023-04-19T15:51:01.567Z,141077.81
2023-04-19T15:56:05.395Z,141093.84
2023-04-19T16:01:12.326Z,141099.97
2023-04-19T16:06:15.758Z,141103.66
2023-04-19T16:11:19.139Z,141111.03
2023-04-19T16:16:28.716Z,141119.66
2023-04-19T16:21:32.223Z,141129.47
2023-04-19T16:26:35.562Z,141144.28
2023-04-19T16:31:40.237Z,141140.53
2023-04-19T16:36:48.068Z,141144.28
2023-04-19T16:41:51.622Z,141140.53
2023-04-19T16:46:58.344Z,141160.25
2023-04-19T16:52:01.685Z,141177.50
2023-04-19T16:57:05.219Z,141192.25
2023-04-19T17:02:11.049Z,141188.56
2023-04-19T17:07:14.519Z,141192.25
2023-04-19T17:12:17.849Z,141204.59
2023-04-19T17:17:24.509Z,141207.06
2023-04-19T17:22:28.101Z,141183.66
2023-04-19T17:27:31.728Z,141165.16
2023-04-19T17:32:36.569Z,141168.84
2023-04-19T17:37:41.647Z,141155.34
2023-04-19T17:42:47.118Z,141182.44
2023-04-19T17:47:55.341Z,141162.72
2023-04-19T17:52:59.850Z,141167.63
2023-04-19T17:58:03.749Z,141177.50
2023-04-19T18:03:10.821Z,141183.66
2023-04-19T18:08:15.017Z,141170.13
2023-04-19T18:13:18.416Z,141202.13
2023-04-19T18:18:28.566Z,141188.56
2023-04-19T18:23:34.367Z,141197.19
2023-04-19T18:28:37.754Z,141203.38
2023-04-19T18:33:42.544Z,141204.59
2023-04-19T18:38:46.925Z,141221.81
2023-04-19T18:44:18.311Z,141242.75
2023-04-19T18:49:17.110Z,141231.69
2023-04-19T18:54:22.320Z,141246.44
2023-04-19T18:59:27.313Z,141252.59
2023-04-19T19:04:50.103Z,141255.09
2023-04-19T19:10:01.540Z,141261.25
2023-04-19T19:15:08.846Z,141285.88
2023-04-19T19:20:13.779Z,141253.88
2023-04-19T19:25:17.127Z,141263.72
2023-04-19T19:30:23.708Z,141288.34
2023-04-19T19:35:28.510Z,141292.03
2023-04-19T19:40:32.883Z,141282.19
2023-04-19T19:45:40.172Z,141273.53
2023-04-19T19:55:51.223Z,141272.31
2023-04-19T20:00:57.336Z,141260.03
2023-04-19T20:06:17.812Z,141264.94
2023-04-19T20:11:25.602Z,141250.13
2023-04-19T20:16:29.145Z,141256.31
2023-04-19T20:21:36.253Z,141245.22
2023-04-19T20:26:39.927Z,141241.53
2023-04-19T20:31:43.352Z,141239.06
2023-04-19T20:36:50.467Z,141246.44
2023-04-19T20:41:53.987Z,141236.63
2023-04-19T20:46:57.389Z,141226.78
2023-04-19T20:52:02.158Z,141257.56
2023-04-19T20:57:05.626Z,141245.22
2023-04-19T21:02:09.313Z,141229.22
2023-04-19T21:07:14.234Z,141256.31
2023-04-19T21:12:18.182Z,141232.91
2023-04-19T21:17:22.073Z,141255.09
2023-04-19T21:22:27.065Z,141255.09
2023-04-19T21:27:34.963Z,141261.25
2023-04-19T21:32:39.376Z,141248.91
